.
WxDataArchive / Data Records for 2006-07-21
2006-07-20 July 2006 2006-07-22

Data Records for Friday, 21 July 2006

Time	Temp	Chill	HIndex	Humid	Dewpt	 Wind 	HiWind	WindDir	Rain 	Barom 
-----	----	-----	------	-----	-----	------	------	-------	-----	----- 
00:00	74.9	74.9	74.9	82	69.0	0	0	---	0.00	29.959 
00:05	74.6	74.6	74.6	82	68.7	0	0	---	0.00	29.959 
00:10	74.4	74.4	74.4	83	68.9	0	0	---	0.00	29.959 
00:15	74.2	74.2	74.2	85	69.4	0	0	---	0.00	29.960 
00:20	74.0	74.0	74.0	85	69.2	0	0	---	0.00	29.960 
00:25	73.9	73.9	73.9	86	69.4	0	0	---	0.00	29.960 
00:30	73.7	73.7	73.7	87	69.6	0	0	---	0.00	29.962 
00:35	73.5	73.5	73.5	87	69.4	0	0	---	0.00	29.962 
00:40	73.3	73.3	73.3	88	69.5	0	0	---	0.00	29.962 
00:45	73.3	73.3	73.3	88	69.5	0	0	---	0.00	29.958 
00:50	73.3	73.3	73.3	88	69.5	0	0	---	0.00	29.958 
00:55	73.3	73.3	73.3	87	69.2	0	1	112	0.00	29.958 
01:00	73.3	73.3	73.3	87	69.2	0	0	---	0.00	29.953 
01:05	73.3	73.3	73.3	87	69.2	0	0	---	0.00	29.953 
01:10	73.3	73.3	73.3	87	69.2	0	0	---	0.00	29.953 
01:15	73.3	73.3	73.3	86	68.8	0	1	112	0.00	29.952 
01:20	73.5	73.5	73.5	85	68.7	0	1	112	0.00	29.952 
01:25	73.5	73.5	73.5	85	68.7	0	2	112	0.01	29.952 
01:30	73.7	73.7	73.7	85	68.9	0	1	112	0.00	29.952 
01:35	73.7	73.7	73.7	85	68.9	0	0	---	0.00	29.952 
01:40	73.5	73.5	73.5	85	68.7	0	0	---	0.00	29.952 
01:45	73.5	73.5	73.5	85	68.7	0	1	112	0.00	29.950 
01:50	73.5	73.5	73.5	86	69.0	0	0	---	0.00	29.950 
01:55	73.5	73.5	73.5	86	69.0	0	0	---	0.00	29.950 
02:00	73.3	73.3	73.3	86	68.8	0	0	---	0.00	29.952 
02:05	73.3	73.3	73.3	87	69.2	0	0	---	0.00	29.952 
02:10	73.3	73.3	73.3	87	69.2	0	0	---	0.00	29.952 
02:15	73.3	73.3	73.3	87	69.2	0	0	---	0.00	29.951 
02:20	73.2	73.2	73.2	87	69.1	0	0	---	0.00	29.951 
02:25	73.2	73.2	73.2	87	69.1	0	0	---	0.00	29.951 
02:30	73.2	73.2	73.2	88	69.4	0	0	---	0.00	29.943 
02:35	73.2	73.2	73.2	88	69.4	0	0	---	0.00	29.943 
02:40	73.2	73.2	73.2	88	69.4	0	0	---	0.00	29.943 
02:45	73.0	73.0	73.0	88	69.2	0	0	---	0.00	29.940 
02:50	73.0	73.0	73.0	89	69.6	0	0	---	0.00	29.940 
02:55	73.0	73.0	73.0	89	69.6	0	0	---	0.00	29.940 
03:00	73.0	73.0	73.0	88	69.2	0	0	---	0.00	29.940 
03:05	73.0	73.0	73.0	88	69.2	0	0	---	0.00	29.940 
03:10	73.0	73.0	73.0	87	68.9	0	0	---	0.00	29.940 
03:15	73.0	73.0	73.0	86	68.6	0	0	---	0.00	29.935 
03:20	73.0	73.0	73.0	86	68.6	0	1	112	0.00	29.935 
03:25	73.2	73.2	73.2	86	68.7	0	1	112	0.00	29.935 
03:30	73.0	73.0	73.0	85	68.2	0	1	112	0.00	29.938 
03:35	73.0	73.0	73.0	85	68.2	0	2	112	0.00	29.938 
03:40	72.8	72.8	72.8	86	68.4	0	1	68	0.00	29.938 
03:45	72.7	72.7	72.7	86	68.3	0	1	68	0.00	29.942 
03:50	72.5	72.5	72.5	86	68.1	0	1	68	0.00	29.942 
03:55	72.3	72.3	72.3	87	68.2	0	2	68	0.00	29.942 
04:00	72.3	72.3	72.3	87	68.2	0	0	---	0.00	29.938 
04:05	72.1	72.1	72.1	87	68.0	0	1	68	0.00	29.938 
04:10	72.1	72.1	72.1	88	68.3	0	1	68	0.00	29.938 
04:15	72.0	72.0	72.0	88	68.2	0	1	68	0.00	29.936 
04:20	72.0	72.0	72.0	88	68.2	0	0	---	0.00	29.936 
04:25	72.0	72.0	72.0	88	68.2	0	0	---	0.00	29.936 
04:30	72.0	72.0	72.0	89	68.6	0	0	---	0.00	29.937 
04:35	72.0	72.0	72.0	89	68.6	0	0	---	0.00	29.937 
04:40	72.0	72.0	72.0	89	68.6	0	1	68	0.00	29.937 
04:45	71.8	71.8	71.8	89	68.4	0	1	68	0.00	29.940 
04:50	71.8	71.8	71.8	89	68.4	0	0	---	0.00	29.940 
04:55	71.8	71.8	71.8	89	68.4	0	1	68	0.00	29.940 
05:00	71.8	71.8	71.8	90	68.7	0	1	68	0.00	29.933 
05:05	71.8	71.8	71.8	89	68.4	0	1	68	0.00	29.933 
05:10	71.8	71.8	71.8	89	68.4	0	0	---	0.00	29.933 
05:15	71.8	71.8	71.8	89	68.4	0	0	---	0.00	29.931 
05:20	71.8	71.8	71.8	89	68.4	0	0	---	0.00	29.931 
05:25	71.8	71.8	71.8	89	68.4	0	0	---	0.00	29.931 
05:30	71.6	71.6	71.6	89	68.2	0	0	---	0.00	29.930 
05:35	71.6	71.6	71.6	89	68.2	0	0	---	0.00	29.930 
05:40	71.6	71.6	71.6	89	68.2	0	0	---	0.00	29.930 
05:45	71.6	71.6	71.6	89	68.2	0	0	---	0.00	29.923 
05:50	71.6	71.6	71.6	89	68.2	0	0	---	0.00	29.923 
05:55	71.5	71.5	71.5	90	68.4	0	0	---	0.00	29.923 
06:00	71.5	71.5	71.5	90	68.4	0	1	68	0.00	29.918 
06:05	71.5	71.5	71.5	89	68.1	0	0	---	0.00	29.918 
06:10	71.3	71.3	71.3	90	68.2	0	0	---	0.00	29.918 
06:15	71.3	71.3	71.3	90	68.2	0	0	---	0.00	29.921 
06:20	71.3	71.3	71.3	90	68.2	0	0	---	0.00	29.921 
06:25	71.3	71.3	71.3	90	68.2	0	0	---	0.00	29.921 
06:30	71.3	71.3	71.3	90	68.2	0	0	---	0.00	29.923 
06:35	71.3	71.3	71.3	90	68.2	0	1	68	0.00	29.923 
06:40	71.5	71.5	71.5	90	68.4	0	1	68	0.00	29.923 
06:45	71.5	71.5	71.5	90	68.4	0	0	---	0.00	29.924 
06:50	71.5	71.5	71.5	90	68.4	0	0	---	0.00	29.924 
06:55	71.6	71.6	71.6	89	68.2	0	1	68	0.00	29.924 
07:00	71.6	71.6	71.6	89	68.2	0	0	---	0.00	29.926 
07:05	71.8	71.8	71.8	89	68.4	0	3	68	0.00	29.926 
07:10	71.8	71.8	71.8	89	68.4	0	1	68	0.00	29.926 
07:15	72.0	72.0	72.0	88	68.2	0	1	68	0.00	29.925 
07:20	72.1	72.1	72.1	88	68.3	0	1	68	0.00	29.925 
07:25	72.1	72.1	72.1	87	68.0	0	1	45	0.00	29.925 
07:30	72.1	72.1	72.1	86	67.7	0	3	90	0.00	29.930 
07:35	72.3	72.3	72.3	85	67.5	0	2	90	0.00	29.930 
07:40	72.5	72.5	72.5	86	68.1	0	3	270	0.00	29.930 
07:45	72.7	72.7	72.7	85	67.9	0	2	270	0.00	29.924 
07:50	72.8	72.8	72.8	84	67.7	0	2	315	0.00	29.924 
07:55	73.2	73.2	73.2	84	68.1	0	2	338	0.00	29.924 
08:00	73.5	73.5	73.5	84	68.4	0	2	338	0.00	29.920 
08:05	73.5	73.5	73.5	84	68.4	0	1	338	0.00	29.920 
08:10	73.7	73.7	73.7	84	68.6	0	2	338	0.00	29.920 
08:15	74.2	74.2	74.2	83	68.7	1	4	90	0.00	29.912 
08:20	74.7	74.7	74.7	83	69.2	0	3	338	0.00	29.912 
08:25	75.4	75.4	76.0	81	69.1	0	2	22	0.00	29.912 
08:30	75.8	75.8	76.8	79	68.8	2	4	112	0.00	29.904 
08:35	76.1	76.1	77.1	80	69.5	1	4	112	0.00	29.904 
08:40	76.5	76.5	77.8	79	69.5	1	3	112	0.00	29.904 
08:45	76.7	76.7	78.2	78	69.3	2	4	112	0.00	29.903 
08:50	76.5	76.5	77.8	79	69.5	0	2	112	0.00	29.903 
08:55	76.1	76.1	77.3	78	68.7	1	3	68	0.00	29.903 
09:00	76.7	76.7	78.1	79	69.7	0	2	68	0.00	29.923 
09:05	77.0	77.0	78.7	75	68.5	1	4	68	0.00	29.923 
09:10	77.4	77.4	79.3	77	69.6	1	5	90	0.00	29.923 
09:15	77.6	77.6	79.6	74	68.6	2	4	112	0.00	29.915 
09:20	78.1	78.1	80.4	76	69.9	1	3	112	0.00	29.915 
09:25	78.3	78.3	80.6	74	69.3	2	4	90	0.00	29.915 
09:30	78.6	78.6	81.0	72	68.8	1	3	90	0.00	29.929 
09:35	79.2	79.2	81.8	71	69.0	1	5	90	0.00	29.929 
09:40	79.4	79.4	82.2	72	69.6	0	3	45	0.00	29.929 
09:45	79.6	79.6	82.2	69	68.5	1	3	158	0.00	29.931 
09:50	79.8	79.8	82.6	70	69.1	2	7	90	0.00	29.931 
09:55	79.9	79.9	82.7	69	68.8	2	7	90	0.00	29.931 
10:00	79.4	79.4	82.1	71	69.2	3	6	112	0.00	29.933 
10:05	79.0	79.0	81.4	70	68.4	1	3	90	0.00	29.933 
10:10	79.2	79.2	81.7	70	68.5	1	4	90	0.00	29.933 
10:15	79.6	79.6	82.1	68	68.1	2	4	90	0.00	29.940 
10:20	79.8	79.8	82.7	71	69.5	2	4	90	0.00	29.940 
10:25	79.8	79.8	82.6	70	69.1	0	2	90	0.00	29.940 
10:30	79.8	79.8	82.4	68	68.3	2	4	90	0.00	29.940 
10:35	79.4	79.4	81.9	69	68.3	2	4	90	0.00	29.940 
10:40	79.2	79.2	81.6	69	68.1	1	3	90	0.00	29.940 
10:45	79.2	79.2	81.6	69	68.1	2	5	112	0.00	29.933 
10:50	79.4	79.4	81.8	68	67.9	2	5	112	0.00	29.933 
10:55	79.6	79.6	82.4	71	69.3	2	4	90	0.00	29.933 
11:00	79.9	79.9	82.6	68	68.4	2	4	90	0.00	29.924 
11:05	79.9	79.9	82.6	68	68.4	2	6	90	0.00	29.924 
11:10	80.1	80.1	82.6	66	67.7	2	5	90	0.00	29.924 
11:15	80.1	80.1	82.5	65	67.2	3	5	90	0.00	29.924 
11:20	80.7	80.7	83.4	65	67.8	2	4	68	0.00	29.924 
11:25	80.9	80.9	83.7	65	68.0	3	6	90	0.00	29.924 
11:30	80.5	80.5	83.1	65	67.6	3	7	90	0.00	29.920 
11:35	80.7	80.7	83.4	65	67.8	3	7	112	0.00	29.920 
11:40	81.2	81.2	84.0	64	67.8	3	9	90	0.00	29.920 
11:45	81.4	81.4	84.6	66	68.9	3	7	90	0.00	29.922 
11:50	81.2	81.2	84.0	64	67.8	3	6	90	0.00	29.922 
11:55	81.1	81.1	83.8	64	67.7	3	6	90	0.00	29.922 
12:00	81.1	81.1	84.1	66	68.6	2	5	90	0.00	29.927 
12:05	81.4	81.4	84.8	67	69.4	3	9	90	0.00	29.927 
12:10	81.8	81.8	85.3	66	69.3	1	4	90	0.00	29.927 
12:15	82.0	82.0	84.4	60	66.7	2	6	112	0.00	29.933 
12:20	82.2	82.2	85.5	64	68.8	2	4	112	0.00	29.933 
12:25	82.0	82.0	84.6	61	67.2	2	6	112	0.00	29.933 
12:30	82.4	82.4	85.2	61	67.6	2	5	112	0.00	29.932 
12:35	82.4	82.4	84.8	59	66.6	2	6	90	0.00	29.932 
12:40	82.6	82.6	85.3	60	67.3	3	8	90	0.00	29.932 
12:45	83.0	83.0	85.3	57	66.2	4	5	90	0.00	29.927 
12:50	83.2	83.2	85.6	57	66.4	2	6	112	0.00	29.927 
12:55	83.2	83.2	85.6	57	66.4	2	7	112	0.00	29.927 
13:00	83.6	83.6	85.9	56	66.2	2	6	112	0.00	29.929 
13:05	84.0	84.0	86.7	57	67.1	1	6	45	0.00	29.929 
13:10	84.1	84.1	85.7	52	64.5	2	5	90	0.00	29.929 
13:15	84.3	84.3	86.5	54	65.8	1	4	135	0.00	29.920 
13:20	84.5	84.5	87.5	57	67.6	3	6	90	0.00	29.920 
13:25	84.9	84.9	87.3	54	66.4	2	5	90	0.00	29.920 
13:30	84.3	84.3	86.2	53	65.3	3	7	90	0.00	29.923 
13:35	84.1	84.1	87.2	58	67.7	3	7	90	0.00	29.923 
13:40	84.5	84.5	86.7	54	66.0	2	5	112	0.00	29.923 
13:45	84.3	84.3	85.5	50	63.6	1	4	90	0.00	29.930 
13:50	84.3	84.3	86.0	52	64.7	2	5	90	0.00	29.930 
13:55	84.3	84.3	86.5	54	65.8	1	4	90	0.00	29.930 
14:00	84.5	84.5	86.3	52	64.9	2	6	112	0.00	29.920 
14:05	85.1	85.1	86.4	49	63.8	2	8	45	0.00	29.920 
14:10	85.1	85.1	85.9	47	62.6	2	8	90	0.00	29.920 
14:15	84.9	84.9	86.1	49	63.6	2	5	112	0.00	29.921 
14:20	84.7	84.7	86.0	50	64.0	1	4	112	0.00	29.921 
14:25	84.3	84.3	84.5	45	60.6	2	6	90	0.00	29.921 
14:30	84.5	84.5	84.3	43	59.5	2	5	112	0.00	29.916 
14:35	84.7	84.7	84.0	40	57.7	2	5	112	0.00	29.916 
14:40	84.7	84.7	84.6	43	59.7	1	4	90	0.00	29.916 
14:45	84.9	84.9	85.4	46	61.8	1	5	90	0.00	29.916 
14:50	84.7	84.7	85.8	49	63.4	2	4	112	0.00	29.916 
14:55	84.3	84.3	85.5	50	63.6	2	7	90	0.00	29.916 
15:00	84.1	84.1	84.8	48	62.3	2	6	45	0.00	29.917 
15:05	84.3	84.3	83.4	39	56.6	2	5	112	0.00	29.917 
15:10	84.1	84.1	84.1	44	59.8	3	6	112	0.00	29.917 
15:15	84.0	84.0	84.5	47	61.6	1	4	112	0.00	29.917 
15:20	83.6	83.6	83.9	46	60.6	2	5	112	0.00	29.917 
15:25	83.4	83.4	84.4	50	62.8	1	3	112	0.00	29.917 
15:30	83.4	83.4	84.6	51	63.3	1	5	112	0.00	29.905 
15:35	83.6	83.6	84.4	49	62.4	1	5	112	0.00	29.905 
15:40	83.6	83.6	85.0	52	64.1	2	6	112	0.00	29.905 
15:45	83.4	83.4	84.0	48	61.6	1	5	90	0.00	29.904 
15:50	83.2	83.2	83.3	45	59.6	1	5	112	0.00	29.904 
15:55	83.2	83.2	83.8	48	61.4	1	3	225	0.00	29.904 
16:00	83.0	83.0	83.2	46	60.1	1	4	112	0.00	29.897 
16:05	83.0	83.0	83.2	46	60.1	1	5	270	0.00	29.897 
16:10	83.0	83.0	83.1	45	59.4	1	3	338	0.00	29.897 
16:15	83.2	83.2	83.3	45	59.6	0	5	338	0.00	29.897 
16:20	83.0	83.0	82.9	44	58.8	1	5	292	0.00	29.897 
16:25	82.8	82.8	83.3	48	61.1	0	3	292	0.00	29.897 
16:30	82.4	82.4	82.6	46	59.5	1	3	292	0.00	29.899 
16:35	81.6	81.6	81.9	47	59.4	1	4	270	0.00	29.899 
16:40	81.2	81.2	81.9	50	60.8	0	2	292	0.00	29.899 
16:45	81.1	81.1	82.0	51	61.2	1	3	292	0.00	29.903 
16:50	80.9	80.9	81.9	52	61.6	1	5	270	0.00	29.903 
16:55	80.9	80.9	82.1	54	62.7	0	1	292	0.00	29.903 
17:00	80.7	80.7	82.0	55	63.0	1	4	22	0.00	29.904 
17:05	80.7	80.7	81.9	54	62.5	1	4	338	0.00	29.904 
17:10	80.7	80.7	81.9	54	62.5	1	4	90	0.00	29.904 
17:15	80.5	80.5	82.1	57	63.8	1	3	315	0.00	29.904 
17:20	80.5	80.5	81.9	56	63.3	1	2	270	0.00	29.904 
17:25	80.5	80.5	82.2	58	64.3	0	1	270	0.00	29.904 
17:30	80.5	80.5	82.1	57	63.8	1	3	315	0.00	29.902 
17:35	80.5	80.5	82.1	57	63.8	0	2	315	0.00	29.902 
17:40	80.3	80.3	81.8	57	63.7	1	3	315	0.00	29.902 
17:45	79.9	79.9	81.2	55	62.3	0	2	315	0.00	29.897 
17:50	79.8	79.8	81.2	56	62.7	0	2	292	0.00	29.897 
17:55	79.6	79.6	81.1	57	63.0	1	2	180	0.00	29.897 
18:00	79.6	79.6	81.1	57	63.0	1	3	112	0.00	29.862 
18:05	79.6	79.6	80.9	55	62.0	1	5	112	0.00	29.862 
18:10	79.6	79.6	81.1	57	63.0	2	6	68	0.00	29.862 
18:15	79.0	79.0	80.4	56	61.9	3	7	90	0.00	29.828 
18:20	78.8	78.8	80.3	58	62.8	1	5	90	0.00	29.828 
18:25	78.8	78.8	80.3	57	62.3	1	3	112	0.00	29.828 
18:30	78.8	78.8	80.5	60	63.7	1	3	135	0.00	29.843 
18:35	78.8	78.8	80.3	57	62.3	1	3	270	0.00	29.843 
18:40	78.6	78.6	80.1	58	62.6	1	4	90	0.00	29.843 
18:45	78.6	78.6	80.1	57	62.1	1	4	45	0.00	29.841 
18:50	78.5	78.5	80.0	58	62.5	0	2	90	0.00	29.841 
18:55	78.3	78.3	79.9	58	62.3	2	6	90	0.00	29.841 
19:00	77.9	77.9	79.5	59	62.4	2	6	90	0.00	29.822 
19:05	77.6	77.6	79.2	58	61.6	3	6	112	0.00	29.822 
19:10	77.4	77.4	79.1	58	61.4	2	6	135	0.00	29.822 
19:15	77.2	77.2	78.9	58	61.3	2	4	68	0.00	29.811 
19:20	77.0	77.0	78.8	59	61.6	1	4	68	0.00	29.811 
19:25	76.8	76.8	78.6	60	61.8	2	6	90	0.00	29.811 
19:30	76.7	76.7	78.5	61	62.2	2	4	90	0.00	29.808 
19:35	76.5	76.5	78.4	62	62.5	1	3	90	0.00	29.808 
19:40	76.5	76.5	78.4	62	62.5	1	3	90	0.00	29.808 
19:45	76.3	76.3	78.2	63	62.8	0	3	45	0.00	29.825 
19:50	76.3	76.3	78.2	62	62.3	1	4	90	0.00	29.825 
19:55	76.1	76.1	78.1	61	61.7	1	4	90	0.00	29.825 
20:00	76.0	76.0	77.9	63	62.5	1	3	112	0.00	29.829 
20:05	76.0	76.0	77.9	63	62.5	2	4	90	0.00	29.829 
20:10	75.8	75.8	77.8	62	61.8	1	3	112	0.00	29.829 
20:15	75.6	75.6	77.7	62	61.6	1	3	112	0.00	29.828 
20:20	75.4	75.4	77.5	62	61.5	0	1	112	0.00	29.828 
20:25	75.3	75.3	77.4	63	61.8	0	2	112	0.00	29.828 
20:30	75.3	75.3	77.4	63	61.8	0	1	135	0.00	29.853 
20:35	74.9	74.9	74.9	62	61.0	0	2	135	0.00	29.853 
20:40	74.9	74.9	74.9	62	61.0	0	2	135	0.00	29.853 
20:45	74.7	74.7	74.7	63	61.2	0	0	---	0.00	29.858 
20:50	74.6	74.6	74.6	64	61.6	0	1	135	0.00	29.858 
20:55	74.2	74.2	74.2	64	61.2	0	1	135	0.00	29.858 
21:00	74.0	74.0	74.0	65	61.5	0	1	135	0.00	29.867 
21:05	73.9	73.9	73.9	65	61.4	0	1	68	0.00	29.867 
21:10	73.9	73.9	73.9	65	61.4	0	0	---	0.00	29.867 
21:15	73.7	73.7	73.7	65	61.2	0	1	338	0.00	29.869 
21:20	73.5	73.5	73.5	65	61.0	0	1	338	0.00	29.869 
21:25	73.5	73.5	73.5	66	61.4	0	0	---	0.00	29.869 
21:30	73.3	73.3	73.3	67	61.7	0	1	338	0.00	29.872 
21:35	73.2	73.2	73.2	67	61.6	0	1	338	0.00	29.872 
21:40	73.0	73.0	73.0	67	61.4	0	2	270	0.00	29.872 
21:45	72.8	72.8	72.8	68	61.6	0	1	270	0.00	29.886 
21:50	72.7	72.7	72.7	68	61.5	0	2	270	0.00	29.886 
21:55	72.7	72.7	72.7	68	61.5	0	1	270	0.00	29.886 
22:00	72.5	72.5	72.5	69	61.7	0	1	270	0.00	29.885 
22:05	72.5	72.5	72.5	68	61.3	0	1	270	0.00	29.885 
22:10	72.5	72.5	72.5	69	61.7	0	1	270	0.00	29.885 
22:15	72.3	72.3	72.3	69	61.5	0	1	270	0.00	29.881 
22:20	72.3	72.3	72.3	69	61.5	0	2	270	0.00	29.881 
22:25	72.1	72.1	72.1	70	61.8	0	1	270	0.00	29.881 
22:30	72.0	72.0	72.0	70	61.7	0	2	270	0.00	29.875 
22:35	72.0	72.0	72.0	70	61.7	0	1	270	0.00	29.875 
22:40	71.8	71.8	71.8	71	61.9	0	1	270	0.00	29.875 
22:45	71.8	71.8	71.8	72	62.3	0	2	270	0.00	29.868 
22:50	71.6	71.6	71.6	72	62.1	0	2	270	0.00	29.868 
22:55	71.5	71.5	71.5	73	62.4	0	1	270	0.00	29.868 
23:00	71.3	71.3	71.3	72	61.8	0	1	270	0.00	29.856 
23:05	71.1	71.1	71.1	73	62.0	0	1	270	0.00	29.856 
23:10	71.1	71.1	71.1	73	62.0	1	3	270	0.00	29.856 
23:15	70.9	70.9	70.9	73	61.8	0	2	315	0.00	29.851 
23:20	70.9	70.9	70.9	72	61.4	0	3	315	0.00	29.851 
23:25	70.8	70.8	70.8	73	61.7	0	2	315	0.00	29.851 
23:30	70.8	70.8	70.8	73	61.7	1	4	292	0.00	29.838 
23:35	70.6	70.6	70.6	73	61.5	1	3	68	0.00	29.838 
23:40	70.6	70.6	70.6	73	61.5	0	2	338	0.00	29.838 
23:45	70.6	70.6	70.6	73	61.5	0	2	338	0.00	29.838 
23:50	70.6	70.6	70.6	73	61.5	0	1	338	0.00	29.838 
23:55	70.4	70.4	70.4	73	61.3	0	2	315	0.00	29.838 

CoCoRaHS
IN-AL-39
A2 Web Hosting
Creative Commons License
GoDaddy
Look for:

loaded 2017-12-11 06:48:52 • last modified 2010-11-18 10:43:29
Privacy PolicyDisclaimer
• wx.awcolley.com is powered by PmWiki v.2002016 •
• all content (unless otherwise noted) © 2017 A W Colley